createdAt,value
2023-05-10T00:00:12.642Z,10.56
2023-05-10T00:02:44.887Z,10.54
2023-05-10T00:05:12.269Z,10.52
2023-05-10T00:07:39.631Z,10.49
2023-05-10T00:10:07.193Z,10.49
2023-05-10T00:12:34.698Z,10.49
2023-05-10T00:15:02.083Z,10.47
2023-05-10T00:17:29.358Z,10.39
2023-05-10T00:19:56.634Z,10.36
2023-05-10T00:22:24.190Z,10.34
2023-05-10T00:24:51.579Z,10.31
2023-05-10T00:27:19.133Z,10.32
2023-05-10T00:29:46.423Z,10.31
2023-05-10T00:32:15.181Z,10.27
2023-05-10T00:34:42.540Z,10.22
2023-05-10T00:37:09.924Z,10.21
2023-05-10T00:39:37.368Z,10.18
2023-05-10T00:42:05.656Z,10.17
2023-05-10T00:44:34.091Z,10.15
2023-05-10T00:47:01.765Z,10.16
2023-05-10T00:49:29.984Z,10.12
2023-05-10T00:51:57.626Z,10.16
2023-05-10T00:54:25.280Z,10.11
2023-05-10T00:56:53.125Z,10.11
2023-05-10T00:59:21.251Z,10.08
2023-05-10T01:01:48.794Z,10.08
2023-05-10T01:04:16.445Z,10.00
2023-05-10T01:06:44.238Z,9.98
2023-05-10T01:09:12.874Z,10.00
2023-05-10T01:11:41.199Z,9.91
2023-05-10T01:14:09.081Z,9.94
2023-05-10T01:16:42.111Z,9.94
2023-05-10T01:19:18.772Z,9.94
2023-05-10T01:22:11.305Z,9.93
2023-05-10T01:25:11.480Z,9.93
2023-05-10T01:28:00.265Z,9.88
2023-05-10T01:30:58.530Z,9.85
2023-05-10T01:33:44.304Z,9.81
2023-05-10T01:36:27.395Z,9.76
2023-05-10T01:39:09.390Z,9.75
2023-05-10T01:41:59.937Z,9.74
2023-05-10T01:45:03.843Z,9.72
2023-05-10T01:47:38.603Z,9.70
2023-05-10T01:50:14.020Z,9.70
2023-05-10T01:52:46.574Z,9.63
2023-05-10T01:55:17.298Z,9.57
2023-05-10T01:57:47.571Z,9.59
2023-05-10T02:00:16.018Z,9.58
2023-05-10T02:02:48.921Z,9.49
2023-05-10T02:05:19.126Z,9.52
2023-05-10T02:07:46.999Z,9.51
2023-05-10T02:10:16.137Z,9.51
2023-05-10T02:12:47.180Z,9.49
2023-05-10T02:15:20.412Z,9.44
2023-05-10T02:17:48.496Z,9.45
2023-05-10T02:20:18.569Z,9.44
2023-05-10T02:22:48.563Z,9.43
2023-05-10T02:25:17.338Z,9.41
2023-05-10T02:27:46.039Z,9.36
2023-05-10T02:30:14.384Z,9.37
2023-05-10T02:32:43.326Z,9.32
2023-05-10T02:35:12.051Z,9.33
2023-05-10T02:37:41.284Z,9.28
2023-05-10T02:40:09.846Z,9.22
2023-05-10T02:42:39.386Z,9.21
2023-05-10T02:45:12.404Z,9.18
2023-05-10T02:47:40.496Z,9.14
2023-05-10T02:50:08.548Z,9.14
2023-05-10T02:52:43.680Z,9.12
2023-05-10T02:55:13.314Z,9.08
2023-05-10T02:57:47.920Z,9.06
2023-05-10T03:00:15.506Z,9.00
2023-05-10T03:02:43.162Z,8.94
2023-05-10T03:05:10.631Z,8.99
2023-05-10T03:07:38.125Z,8.98
2023-05-10T03:10:06.484Z,8.97
2023-05-10T03:12:54.303Z,8.92
2023-05-10T03:15:43.629Z,8.93
2023-05-10T03:18:17.232Z,8.92
2023-05-10T03:20:48.552Z,8.88
2023-05-10T03:23:18.979Z,8.96
2023-05-10T03:25:49.293Z,8.92
2023-05-10T03:28:18.098Z,8.93
2023-05-10T03:30:46.949Z,8.93
2023-05-10T03:33:15.152Z,8.95
2023-05-10T03:35:47.035Z,8.94
2023-05-10T03:38:15.283Z,8.96
2023-05-10T03:40:42.618Z,8.98
2023-05-10T03:43:10.021Z,8.97
2023-05-10T03:45:37.478Z,9.00
2023-05-10T03:48:05.307Z,9.00
2023-05-10T03:50:32.812Z,9.07
2023-05-10T03:53:00.231Z,9.11
2023-05-10T03:55:29.892Z,9.12
2023-05-10T03:57:57.511Z,9.14
2023-05-10T04:00:24.973Z,9.17
2023-05-10T04:02:55.060Z,9.23
2023-05-10T04:05:23.661Z,9.26
2023-05-10T04:07:52.851Z,9.31
2023-05-10T04:10:20.213Z,9.37
2023-05-10T04:12:47.640Z,9.42
2023-05-10T04:15:15.083Z,9.45
2023-05-10T04:17:42.437Z,9.48
2023-05-10T04:20:10.400Z,9.51
2023-05-10T04:22:37.758Z,9.56
2023-05-10T04:25:05.907Z,9.62
2023-05-10T04:27:33.364Z,9.66
2023-05-10T04:30:00.728Z,9.73
2023-05-10T04:32:28.066Z,9.81
2023-05-10T04:34:55.329Z,9.89
2023-05-10T04:37:24.173Z,9.98
2023-05-10T04:39:51.424Z,9.99
2023-05-10T04:42:18.867Z,10.02
2023-05-10T04:44:46.243Z,10.09
2023-05-10T04:47:14.340Z,10.11
2023-05-10T04:49:41.567Z,10.12
2023-05-10T04:52:08.785Z,10.19
2023-05-10T04:54:36.069Z,10.20
2023-05-10T04:57:03.445Z,10.24
2023-05-10T04:59:30.756Z,10.30
2023-05-10T05:01:57.987Z,10.37
2023-05-10T05:04:25.384Z,10.42
2023-05-10T05:06:54.028Z,10.48
2023-05-10T05:09:21.514Z,10.54
2023-05-10T05:11:48.858Z,10.59
2023-05-10T05:14:16.228Z,10.64
2023-05-10T05:16:43.542Z,10.70
2023-05-10T05:19:10.845Z,10.71
2023-05-10T05:21:38.560Z,10.72
2023-05-10T05:24:06.269Z,10.75
2023-05-10T05:26:33.635Z,10.86
2023-05-10T05:29:00.916Z,10.90
2023-05-10T05:31:28.340Z,11.00
2023-05-10T05:33:56.568Z,11.08
2023-05-10T05:36:23.983Z,11.15
2023-05-10T05:38:51.395Z,11.18
2023-05-10T05:41:18.806Z,11.31
2023-05-10T05:43:46.156Z,11.37
2023-05-10T05:46:14.564Z,11.38
2023-05-10T05:48:41.969Z,11.47
2023-05-10T05:51:09.339Z,11.59
2023-05-10T05:53:36.598Z,11.68
2023-05-10T05:56:04.863Z,11.75
2023-05-10T05:58:32.234Z,11.77
2023-05-10T06:00:59.578Z,11.86
2023-05-10T06:03:27.077Z,11.96
2023-05-10T06:05:54.412Z,12.05
2023-05-10T06:08:21.838Z,12.19
2023-05-10T06:10:49.241Z,12.30
2023-05-10T06:13:16.738Z,12.51
2023-05-10T06:15:44.110Z,12.64
2023-05-10T06:18:11.233Z,12.81
2023-05-10T06:20:38.862Z,12.95
2023-05-10T06:23:06.209Z,13.03
2023-05-10T06:25:33.585Z,13.23
2023-05-10T06:28:01.124Z,13.33
2023-05-10T06:30:30.317Z,13.44
2023-05-10T06:32:58.203Z,13.62
2023-05-10T06:35:25.793Z,13.83
2023-05-10T06:37:53.498Z,13.98
2023-05-10T06:40:21.109Z,14.13
2023-05-10T06:42:49.507Z,14.39
2023-05-10T06:45:17.663Z,14.65
2023-05-10T06:47:45.214Z,14.76
2023-05-10T06:50:12.893Z,14.94
2023-05-10T06:52:40.373Z,15.12
2023-05-10T06:55:08.271Z,15.27
2023-05-10T06:57:35.810Z,15.28
2023-05-10T07:00:06.043Z,15.37
2023-05-10T07:02:33.787Z,15.47
2023-05-10T07:05:03.168Z,15.58
2023-05-10T07:07:31.100Z,15.75
2023-05-10T07:09:58.916Z,15.89
2023-05-10T07:12:26.883Z,16.08
2023-05-10T07:14:54.412Z,16.23
2023-05-10T07:17:22.014Z,16.48
2023-05-10T07:19:49.651Z,16.65
2023-05-10T07:22:18.035Z,16.73
2023-05-10T07:24:45.468Z,16.81
2023-05-10T07:27:14.181Z,16.80
2023-05-10T07:29:41.636Z,16.75
2023-05-10T07:32:09.147Z,16.87
2023-05-10T07:34:36.605Z,17.00
2023-05-10T07:37:04.038Z,17.21
2023-05-10T07:39:31.459Z,17.43
2023-05-10T07:41:58.870Z,17.59
2023-05-10T07:44:26.456Z,17.70
2023-05-10T07:46:53.999Z,17.71
2023-05-10T07:49:21.454Z,17.61
2023-05-10T07:51:49.068Z,17.78
2023-05-10T07:54:16.501Z,17.98
2023-05-10T07:56:48.192Z,18.08
2023-05-10T07:59:18.983Z,18.13
2023-05-10T08:01:46.455Z,18.27
2023-05-10T08:04:14.060Z,18.25
2023-05-10T08:06:41.697Z,18.21
2023-05-10T08:09:09.841Z,18.18
2023-05-10T08:11:37.201Z,18.28
2023-05-10T08:14:04.638Z,18.30
2023-05-10T08:16:32.061Z,18.33
2023-05-10T08:18:59.493Z,18.35
2023-05-10T08:21:27.491Z,18.50
2023-05-10T08:23:54.902Z,18.67
2023-05-10T08:26:22.913Z,18.79
2023-05-10T08:28:50.221Z,18.77
2023-05-10T08:31:17.705Z,18.83
2023-05-10T08:33:45.049Z,18.89
2023-05-10T08:36:12.509Z,18.86
2023-05-10T08:38:39.810Z,18.82
2023-05-10T08:41:07.750Z,18.91
2023-05-10T08:43:37.782Z,19.01
2023-05-10T08:46:06.796Z,19.07
2023-05-10T08:48:36.693Z,19.20
2023-05-10T08:51:05.197Z,19.20
2023-05-10T08:53:34.379Z,19.24
2023-05-10T08:56:05.288Z,19.33
2023-05-10T08:58:33.148Z,19.45
2023-05-10T09:01:02.251Z,19.51
2023-05-10T09:03:29.895Z,19.70
2023-05-10T09:05:57.452Z,19.77
2023-05-10T09:08:28.255Z,19.75
2023-05-10T09:10:59.259Z,19.84
2023-05-10T09:13:27.214Z,19.83
2023-05-10T09:15:54.989Z,19.88
2023-05-10T09:18:22.433Z,19.99
2023-05-10T09:20:50.604Z,20.01
2023-05-10T09:23:17.978Z,20.00
2023-05-10T09:25:45.420Z,20.11
2023-05-10T09:28:13.379Z,20.22
2023-05-10T09:30:40.931Z,20.22
2023-05-10T09:33:09.284Z,20.17
2023-05-10T09:35:37.283Z,20.10
2023-05-10T09:38:06.258Z,20.16
2023-05-10T09:40:33.676Z,20.22
2023-05-10T09:43:10.061Z,20.26
2023-05-10T09:45:39.123Z,20.46
2023-05-10T09:48:07.845Z,20.42
2023-05-10T09:50:35.608Z,20.33
2023-05-10T09:53:04.878Z,20.29
2023-05-10T09:55:47.184Z,20.55
2023-05-10T09:58:15.506Z,20.67
2023-05-10T10:00:49.084Z,20.63
2023-05-10T10:03:18.459Z,20.55
2023-05-10T10:05:47.256Z,20.65
2023-05-10T10:08:15.454Z,20.65
2023-05-10T10:10:46.520Z,20.66
2023-05-10T10:13:14.610Z,20.69
2023-05-10T10:15:43.766Z,20.83
2023-05-10T10:18:16.550Z,20.74
2023-05-10T10:20:44.043Z,20.69
2023-05-10T10:23:11.366Z,20.52
2023-05-10T10:25:39.471Z,20.59
2023-05-10T10:28:36.860Z,20.71
2023-05-10T10:31:20.411Z,20.69
2023-05-10T10:34:10.744Z,20.64
2023-05-10T10:36:41.787Z,20.71
2023-05-10T10:39:13.112Z,20.80
2023-05-10T10:41:53.750Z,20.88
2023-05-10T10:44:26.506Z,20.97
2023-05-10T10:47:12.739Z,20.90
2023-05-10T10:49:43.062Z,20.80
2023-05-10T10:52:24.867Z,20.85
2023-05-10T10:54:53.926Z,20.99
2023-05-10T10:57:24.677Z,21.01
2023-05-10T10:59:52.139Z,21.01
2023-05-10T11:02:50.109Z,20.87
2023-05-10T11:05:36.700Z,20.87
2023-05-10T11:08:16.096Z,20.96
2023-05-10T11:11:10.717Z,20.91
2023-05-10T11:13:43.485Z,21.02
2023-05-10T11:16:17.684Z,21.15
2023-05-10T11:19:03.383Z,21.02
2023-05-10T11:21:35.119Z,20.81
2023-05-10T11:24:07.080Z,20.71
2023-05-10T11:26:38.450Z,20.65
2023-05-10T11:29:06.275Z,20.65
2023-05-10T11:31:34.101Z,20.72
2023-05-10T11:34:03.142Z,20.79
2023-05-10T11:36:35.076Z,20.73
2023-05-10T11:39:02.398Z,20.80
2023-05-10T11:41:31.159Z,20.88
2023-05-10T11:43:59.288Z,20.92
2023-05-10T11:46:28.726Z,21.03
2023-05-10T11:49:02.954Z,20.88
2023-05-10T11:51:30.401Z,20.84
2023-05-10T11:53:58.556Z,20.87
2023-05-10T11:56:28.234Z,20.93
2023-05-10T11:58:57.980Z,20.90
2023-05-10T12:01:27.654Z,20.89
2023-05-10T12:03:56.551Z,20.79
2023-05-10T12:06:24.355Z,20.89
2023-05-10T12:08:54.896Z,20.81
2023-05-10T12:11:26.627Z,20.75
2023-05-10T12:13:54.383Z,20.81
2023-05-10T12:16:23.556Z,20.77
2023-05-10T12:18:52.364Z,20.80
2023-05-10T12:21:21.152Z,20.78
2023-05-10T12:23:51.357Z,20.70
2023-05-10T12:26:19.012Z,20.63
2023-05-10T12:28:46.548Z,20.59
2023-05-10T12:31:14.007Z,20.63
2023-05-10T12:33:45.771Z,20.74
2023-05-10T12:36:15.385Z,20.76
2023-05-10T12:38:44.973Z,20.76
2023-05-10T12:41:19.353Z,20.73
2023-05-10T12:43:47.666Z,20.72
2023-05-10T12:46:19.809Z,20.74
2023-05-10T12:48:57.565Z,20.64
2023-05-10T12:51:31.883Z,20.53
2023-05-10T12:53:59.145Z,20.47
2023-05-10T12:56:26.920Z,20.42
2023-05-10T12:58:54.289Z,20.47
2023-05-10T13:01:21.790Z,20.49
2023-05-10T13:03:49.231Z,20.52
2023-05-10T13:06:16.578Z,20.43
2023-05-10T13:08:44.169Z,20.37
2023-05-10T13:11:11.706Z,20.37
2023-05-10T13:13:39.303Z,20.31
2023-05-10T13:16:06.907Z,20.30
2023-05-10T13:18:34.390Z,20.27
2023-05-10T13:21:01.806Z,20.33
2023-05-10T13:23:29.136Z,20.31
2023-05-10T13:25:56.652Z,20.23
2023-05-10T13:28:23.896Z,20.18
2023-05-10T13:30:51.611Z,20.16
2023-05-10T13:33:19.068Z,20.13
2023-05-10T13:35:46.664Z,20.13
2023-05-10T13:38:14.927Z,20.16
2023-05-10T13:40:42.418Z,20.23
2023-05-10T13:43:09.853Z,20.23
2023-05-10T13:45:37.299Z,20.21
2023-05-10T13:48:05.035Z,20.10
2023-05-10T13:50:32.777Z,20.11
2023-05-10T13:53:00.193Z,20.09
2023-05-10T13:58:12.811Z,19.97
2023-05-10T14:00:40.469Z,19.94
2023-05-10T14:03:10.522Z,19.91
2023-05-10T14:05:38.505Z,19.94
2023-05-10T14:08:06.255Z,19.96
2023-05-10T14:10:34.122Z,19.95
2023-05-10T14:13:01.720Z,19.95
2023-05-10T14:15:29.463Z,19.88
2023-05-10T14:17:57.216Z,19.83
2023-05-10T14:20:24.898Z,19.79
2023-05-10T14:22:52.318Z,19.73
2023-05-10T14:25:20.192Z,19.75
2023-05-10T14:27:48.519Z,19.76
2023-05-10T14:30:16.228Z,19.77
2023-05-10T14:32:44.054Z,19.75
2023-05-10T14:35:13.393Z,19.72
2023-05-10T14:37:40.886Z,19.67
2023-05-10T14:40:09.099Z,19.62
2023-05-10T14:42:36.703Z,19.59
2023-05-10T14:45:05.023Z,19.55
2023-05-10T14:47:32.409Z,19.54
2023-05-10T14:49:59.823Z,19.54
2023-05-10T14:55:12.539Z,19.61
2023-05-10T14:57:39.989Z,19.58
2023-05-10T15:00:08.490Z,19.57
2023-05-10T15:02:36.524Z,19.55
2023-05-10T15:05:04.949Z,19.49
2023-05-10T15:07:32.982Z,19.47
2023-05-10T15:10:00.622Z,19.45
2023-05-10T15:12:28.344Z,19.43
2023-05-10T15:14:56.007Z,19.42
2023-05-10T15:17:23.764Z,19.45
2023-05-10T15:19:51.486Z,19.45
2023-05-10T15:22:19.184Z,19.41
2023-05-10T15:24:46.603Z,19.40
2023-05-10T15:27:14.119Z,19.41
2023-05-10T15:29:41.749Z,19.40
2023-05-10T15:32:09.164Z,19.34
2023-05-10T15:34:37.280Z,19.30
2023-05-10T15:37:04.674Z,19.32
2023-05-10T15:39:31.943Z,19.28
2023-05-10T15:41:59.466Z,19.21
2023-05-10T15:44:26.778Z,19.23
2023-05-10T15:46:54.131Z,19.16
2023-05-10T15:49:21.614Z,19.16
2023-05-10T15:51:49.640Z,19.15
2023-05-10T15:54:17.098Z,19.15
2023-05-10T15:56:44.946Z,19.12
2023-05-10T15:59:12.307Z,19.10
2023-05-10T16:01:39.906Z,19.10
2023-05-10T16:04:07.475Z,19.10
2023-05-10T16:06:36.249Z,19.08
2023-05-10T16:09:04.134Z,19.01
2023-05-10T16:11:31.692Z,18.98
2023-05-10T16:13:59.052Z,18.99
2023-05-10T16:16:26.798Z,18.97
2023-05-10T16:18:54.424Z,18.92
2023-05-10T16:21:22.631Z,18.85
2023-05-10T16:23:50.124Z,18.73
2023-05-10T16:26:17.732Z,18.72
2023-05-10T16:28:45.172Z,18.65
2023-05-10T16:31:12.908Z,18.68
2023-05-10T16:33:40.724Z,18.65
2023-05-10T16:36:08.228Z,18.58
2023-05-10T16:38:35.618Z,18.49
2023-05-10T16:41:03.810Z,18.42
2023-05-10T16:43:32.705Z,18.38
2023-05-10T16:46:00.393Z,18.36
2023-05-10T16:48:28.096Z,18.33
2023-05-10T16:50:55.741Z,18.29
2023-05-10T16:53:23.285Z,18.25
2023-05-10T16:55:50.998Z,18.20
2023-05-10T16:58:18.579Z,18.13
2023-05-10T17:00:47.057Z,18.10
2023-05-10T17:03:14.700Z,18.06
2023-05-10T17:05:43.315Z,17.98
2023-05-10T17:08:11.120Z,17.98
2023-05-10T17:10:41.795Z,17.93
2023-05-10T17:13:10.396Z,17.87
2023-05-10T17:15:39.343Z,17.81
2023-05-10T17:18:07.883Z,17.75
2023-05-10T17:20:36.200Z,17.69
2023-05-10T17:23:03.748Z,17.64
2023-05-10T17:25:31.357Z,17.58
2023-05-10T17:27:58.654Z,17.52
2023-05-10T17:30:28.465Z,17.52
2023-05-10T17:32:56.523Z,17.43
2023-05-10T17:35:24.374Z,17.41
2023-05-10T17:37:52.076Z,17.37
2023-05-10T17:40:19.614Z,17.30
2023-05-10T17:42:47.331Z,17.27
2023-05-10T17:45:15.689Z,17.22
2023-05-10T17:47:43.567Z,17.18
2023-05-10T17:50:11.435Z,17.13
2023-05-10T17:52:39.011Z,17.05
2023-05-10T17:55:07.010Z,17.01
2023-05-10T17:57:35.085Z,16.95
2023-05-10T18:00:04.104Z,16.88
2023-05-10T18:02:33.133Z,16.88
2023-05-10T18:05:02.046Z,16.82
2023-05-10T18:07:30.313Z,16.76
2023-05-10T18:09:58.775Z,16.70
2023-05-10T18:12:26.546Z,16.66
2023-05-10T18:14:53.940Z,16.56
2023-05-10T18:17:21.269Z,16.52
2023-05-10T18:19:52.704Z,16.47
2023-05-10T18:22:20.771Z,16.41
2023-05-10T18:24:48.339Z,16.37
2023-05-10T18:27:15.818Z,16.31
2023-05-10T18:29:43.289Z,16.24
2023-05-10T18:32:10.898Z,16.18
2023-05-10T18:34:38.325Z,16.13
2023-05-10T18:37:07.925Z,16.09
2023-05-10T18:39:37.686Z,16.05
2023-05-10T18:42:09.300Z,16.00
2023-05-10T18:44:37.078Z,15.95
2023-05-10T18:47:04.606Z,15.90
2023-05-10T18:49:32.437Z,15.85
2023-05-10T18:52:00.308Z,15.81
2023-05-10T18:54:27.947Z,15.77
2023-05-10T18:56:58.096Z,15.75
2023-05-10T18:59:26.008Z,15.70
2023-05-10T19:01:54.955Z,15.65
2023-05-10T19:04:24.060Z,15.60
2023-05-10T19:06:51.912Z,15.49
2023-05-10T19:09:20.434Z,15.50
2023-05-10T19:11:48.883Z,15.47
2023-05-10T19:14:16.562Z,15.40
2023-05-10T19:16:44.579Z,15.35
2023-05-10T19:19:14.273Z,15.34
2023-05-10T19:21:43.047Z,15.31
2023-05-10T19:24:10.819Z,15.29
2023-05-10T19:26:38.522Z,15.24
2023-05-10T19:29:06.362Z,15.20
2023-05-10T19:32:13.445Z,15.16
2023-05-10T19:34:44.443Z,15.06
2023-05-10T19:37:12.410Z,15.04
2023-05-10T19:39:40.031Z,15.02
2023-05-10T19:42:07.398Z,14.99
2023-05-10T19:44:35.293Z,14.94
2023-05-10T19:47:04.931Z,14.92
2023-05-10T19:49:32.362Z,14.86
2023-05-10T19:51:59.650Z,14.84
2023-05-10T19:54:27.122Z,14.82
2023-05-10T19:56:54.352Z,14.78
2023-05-10T19:59:21.812Z,14.71
2023-05-10T20:01:49.376Z,14.68
2023-05-10T20:04:16.917Z,14.67
2023-05-10T20:06:44.433Z,14.65
2023-05-10T20:09:11.873Z,14.58
2023-05-10T20:11:39.419Z,14.57
2023-05-10T20:14:06.712Z,14.51
2023-05-10T20:16:34.117Z,14.49
2023-05-10T20:19:01.703Z,14.48
2023-05-10T20:21:29.196Z,14.45
2023-05-10T20:23:56.976Z,14.40
2023-05-10T20:26:24.381Z,14.36
2023-05-10T20:28:51.778Z,14.30
2023-05-10T20:31:19.147Z,14.26
2023-05-10T20:33:46.562Z,14.22
2023-05-10T20:36:15.177Z,14.19
2023-05-10T20:38:42.488Z,14.08
2023-05-10T20:41:09.994Z,14.09
2023-05-10T20:43:37.965Z,14.02
2023-05-10T20:46:05.726Z,14.00
2023-05-10T20:48:33.384Z,13.95
2023-05-10T20:51:02.411Z,13.90
2023-05-10T20:53:30.064Z,13.85
2023-05-10T20:55:57.596Z,13.82
2023-05-10T20:58:24.982Z,13.80
2023-05-10T21:00:52.465Z,13.75
2023-05-10T21:03:19.922Z,13.73
2023-05-10T21:05:47.531Z,13.71
2023-05-10T21:08:15.057Z,13.66
2023-05-10T21:10:42.477Z,13.62
2023-05-10T21:13:09.940Z,13.61
2023-05-10T21:15:37.336Z,13.58
2023-05-10T21:18:05.229Z,13.54
2023-05-10T21:20:32.564Z,13.51
2023-05-10T21:22:59.897Z,13.48
2023-05-10T21:25:27.412Z,13.45
2023-05-10T21:27:55.366Z,13.43
2023-05-10T21:30:22.836Z,13.39
2023-05-10T21:32:50.176Z,13.40
2023-05-10T21:35:17.628Z,13.32
2023-05-10T21:37:44.878Z,13.29
2023-05-10T21:40:13.143Z,13.33
2023-05-10T21:42:40.581Z,13.28
2023-05-10T21:45:08.311Z,13.26
2023-05-10T21:47:35.754Z,13.26
2023-05-10T21:50:03.147Z,13.21
2023-05-10T21:52:30.440Z,13.22
2023-05-10T21:54:57.722Z,13.19
2023-05-10T21:57:25.274Z,13.14
2023-05-10T21:59:52.753Z,13.16
2023-05-10T22:02:20.198Z,13.12
2023-05-10T22:04:47.704Z,13.08
2023-05-10T22:07:17.240Z,13.08
2023-05-10T22:09:44.694Z,13.05
2023-05-10T22:12:13.050Z,13.04
2023-05-10T22:14:40.534Z,13.02
2023-05-10T22:17:08.344Z,13.01
2023-05-10T22:19:35.925Z,12.96
2023-05-10T22:22:03.766Z,12.91
2023-05-10T22:24:32.037Z,12.88
2023-05-10T22:26:59.673Z,12.84
2023-05-10T22:29:27.582Z,12.81
2023-05-10T22:31:55.071Z,12.80
2023-05-10T22:34:22.558Z,12.77
2023-05-10T22:36:50.703Z,12.72
2023-05-10T22:39:18.134Z,12.71
2023-05-10T22:41:45.437Z,12.66
2023-05-10T22:44:12.686Z,12.64
2023-05-10T22:46:40.302Z,12.60
2023-05-10T22:49:07.853Z,12.58
2023-05-10T22:51:35.463Z,12.51
2023-05-10T22:54:02.933Z,12.49
2023-05-10T22:56:31.407Z,12.49
2023-05-10T22:58:59.091Z,12.47
2023-05-10T23:01:26.580Z,12.46
2023-05-10T23:03:54.288Z,12.45
2023-05-10T23:06:21.473Z,12.38
2023-05-10T23:08:49.561Z,12.35
2023-05-10T23:11:17.346Z,12.33
2023-05-10T23:13:44.946Z,12.25
2023-05-10T23:16:12.450Z,12.28
2023-05-10T23:18:39.928Z,12.22
2023-05-10T23:21:07.304Z,12.18
2023-05-10T23:23:34.987Z,12.15
2023-05-10T23:26:02.619Z,12.12
2023-05-10T23:28:29.978Z,12.09
2023-05-10T23:30:58.757Z,12.06
2023-05-10T23:33:27.118Z,12.04
2023-05-10T23:35:55.399Z,12.01
2023-05-10T23:38:22.733Z,11.98
2023-05-10T23:40:50.951Z,11.96
2023-05-10T23:43:20.059Z,11.92
2023-05-10T23:45:55.458Z,11.90
2023-05-10T23:48:22.928Z,11.89
2023-05-10T23:50:50.366Z,11.82
2023-05-10T23:53:17.897Z,11.77
2023-05-10T23:55:45.922Z,11.78
2023-05-10T23:58:13.277Z,11.79
